Oneiro — SVA3427 — position and weather

sailwx.info

Track history (hours):
 
Tides and Currents Weather Stations Pressure Air Temp Water Temp Dewpoint Dewpoint Depression Visibility Wind Speed Wind Dir Waves Ship Positions

Oneiro

Last reported at 2018-Jun-14 19:37 UTC. Time now 2018-Jun-22 00:02 UTC.
Position N 37°21' E 023°25'.

Length 53 m; draft 3 m.

Type: Pleasure craft. MMSI: 241024000.

Date/timePositionNaut miles runAvg speedWind from/ knotsBaromVisibWave heightAir tempDewpointWater temp
2018-Jun-14 19:37N 37°21' E 023°25'1210.5
2018-Jun-14 18:29N 37°30' E 023°35'611.5
2018-Jun-14 18:00N 37°35' E 023°36'611.2
2018-Jun-14 17:30N 37°41' E 023°37'611.9
2018-Jun-14 17:00N 37°46' E 023°38'612.3
2018-Jun-14 16:30N 37°53' E 023°39'3 6.7
2018-Jun-14 16:00N 37°56' E 023°39'0 0.0
2018-Jun-14 15:30N 37°56' E 023°39'0 0.0
2018-Jun-14 15:00N 37°56' E 023°39'0 0.0
2018-Jun-14 14:30N 37°56' E 023°39'0 0.0
2018-Jun-14 14:00N 37°56' E 023°39'0 0.0
2018-Jun-14 13:30N 37°56' E 023°39'0 0.0
2018-Jun-14 13:00N 37°56' E 023°39'0 0.0
2018-Jun-14 12:30N 37°56' E 023°39'0 0.0
2018-Jun-14 12:00N 37°56' E 023°39'0 0.0
2018-Jun-14 11:30N 37°56' E 023°39'0 0.0
2018-Jun-14 11:00N 37°56' E 023°39'0 0.0
2018-Jun-14 10:30N 37°56' E 023°39'0 0.0
2018-Jun-14 10:00N 37°56' E 023°39'0 0.0
2018-Jun-14 09:30N 37°56' E 023°39'0 0.1
2018-Jun-14 09:00N 37°56' E 023°39'0 0.1
2018-Jun-14 08:30N 37°56' E 023°39'0 0.0
2018-Jun-14 07:58N 37°56' E 023°39'0 0.2
2018-Jun-14 07:29N 37°56' E 023°39'  
2018-Jun-10 05:33N 36°59' E 025°19'110.7
2018-Jun-10 05:29N 36°60' E 025°19'510.6
2018-Jun-10 05:00N 37°05' E 025°19'5 9.1
2018-Jun-10 04:30N 37°09' E 025°17'3 5.0
2018-Jun-10 03:50N 37°08' E 025°13'0 0.0
2018-Jun-10 03:18N 37°08' E 025°13'0 0.0
2018-Jun-10 02:53N 37°08' E 025°13'0 0.0
2018-Jun-10 02:23N 37°08' E 025°13'0 0.0
2018-Jun-10 01:44N 37°08' E 025°13'0 0.0
2018-Jun-10 01:31N 37°08' E 025°13'0 0.0
2018-Jun-09 23:52N 37°08' E 025°13'0 0.0
2018-Jun-09 23:25N 37°08' E 025°13'0 0.0
2018-Jun-09 22:57N 37°08' E 025°13'0 0.0
2018-Jun-09 21:14N 37°08' E 025°13'0 0.0
2018-Jun-09 21:00N 37°08' E 025°13'0 0.0
2018-Jun-09 16:04N 37°08' E 025°13'0 0.0
2018-Jun-09 15:42N 37°08' E 025°13'0 0.0
2018-Jun-09 15:24N 37°08' E 025°13'0 0.0
2018-Jun-09 13:56N 37°08' E 025°13'0 0.0
2018-Jun-09 13:22N 37°08' E 025°13'0 0.0
2018-Jun-09 12:50N 37°08' E 025°13'0 0.0
2018-Jun-09 12:19N 37°08' E 025°13'0 0.0
2018-Jun-09 11:54N 37°08' E 025°13'0 0.0
2018-Jun-09 11:23N 37°08' E 025°13'0 0.0
2018-Jun-09 10:53N 37°08' E 025°13'0 0.0
2018-Jun-09 10:19N 37°08' E 025°13'0 0.0
2018-Jun-09 09:58N 37°08' E 025°13'0 0.0
2018-Jun-09 09:23N 37°08' E 025°13'0 0.0
2018-Jun-09 08:56N 37°08' E 025°13'0 0.1
2018-Jun-09 08:16N 37°08' E 025°13'0 0.0
2018-Jun-09 08:00N 37°08' E 025°13'0 0.4
2018-Jun-09 07:30N 37°08' E 025°14'612.1
2018-Jun-09 07:00N 37°13' E 025°16'612.4
2018-Jun-09 06:30N 37°19' E 025°16'612.4
2018-Jun-09 05:59N 37°26' E 025°18'2 0.1
2018-Jun-08 16:10N 37°27' E 025°20'0 0.8
2018-Jun-08 15:58N 37°27' E 025°19'3 7.4
2018-Jun-08 15:30N 37°24' E 025°17'2 4.2
2018-Jun-08 14:55N 37°23' E 025°14'0 0.0
2018-Jun-08 12:39N 37°23' E 025°14'0 0.0
2018-Jun-08 12:26N 37°23' E 025°14'0 0.0
2018-Jun-08 11:59N 37°23' E 025°14'0 0.0
2018-Jun-08 11:30N 37°23' E 025°14'0 0.0
2018-Jun-08 10:24N 37°23' E 025°14'1 3.0
2018-Jun-08 10:01N 37°24' E 025°16'0 0.0
2018-Jun-08 09:29N 37°24' E 025°16'0 0.0
2018-Jun-08 09:01N 37°24' E 025°16'0 0.0
2018-Jun-08 08:31N 37°24' E 025°16'0 0.0
2018-Jun-08 08:01N 37°24' E 025°16'0 0.2
2018-Jun-08 07:30N 37°23' E 025°16'612.4
2018-Jun-08 07:00N 37°23' E 025°08'10 1.3
2018-Jun-07 23:25N 37°26' E 024°57'0 0.0
2018-Jun-07 22:36N 37°26' E 024°57'0 0.0
2018-Jun-07 22:13N 37°26' E 024°57'0 0.0
2018-Jun-07 21:54N 37°26' E 024°57'56 5.0
2018-Jun-07 10:42N 37°45' E 023°49'313.7
2018-Jun-07 10:31N 37°47' E 023°47'713.7
2018-Jun-07 10:01N 37°52' E 023°42'4 8.7
2018-Jun-07 09:30N 37°56' E 023°39'0 0.0
2018-Jun-07 09:00N 37°56' E 023°39'0 0.0
2018-Jun-07 08:31N 37°56' E 023°39'0 0.0
2018-Jun-07 08:01N 37°56' E 023°39'0 0.0
2018-Jun-07 07:30N 37°56' E 023°39'0 0.0
2018-Jun-07 07:00N 37°56' E 023°39'0 0.0
2018-Jun-07 06:31N 37°56' E 023°39'0 0.0
2018-Jun-07 06:00N 37°56' E 023°39'0 0.0
2018-Jun-07 05:31N 37°56' E 023°39'0 0.0
2018-Jun-07 05:01N 37°56' E 023°39'0 0.0
2018-Jun-07 04:30N 37°56' E 023°39'0 0.0
2018-Jun-07 04:00N 37°56' E 023°39'0 0.0
2018-Jun-07 03:31N 37°56' E 023°39'0 0.0
2018-Jun-07 03:01N 37°56' E 023°39'0 0.0
2018-Jun-07 02:30N 37°56' E 023°39'0 0.0
2018-Jun-07 02:01N 37°56' E 023°39'0 0.1
2018-Jun-07 01:31N 37°56' E 023°39'0 0.1
2018-Jun-07 00:59N 37°56' E 023°39'0 0.0
2018-Jun-07 00:31N 37°56' E 023°39'0 0.0
2018-Jun-07 00:00N 37°56' E 023°39'0 0.0
2018-Jun-06 23:30N 37°56' E 023°39'0 0.0
2018-Jun-06 23:01N 37°56' E 023°39'0 0.0
2018-Jun-06 22:30N 37°56' E 023°39'0 0.0
2018-Jun-06 22:00N 37°56' E 023°39'0 0.0
2018-Jun-06 21:31N 37°56' E 023°39'0 0.0
2018-Jun-06 21:00N 37°56' E 023°39'0 0.0
2018-Jun-06 20:31N 37°56' E 023°39'0 0.0
2018-Jun-06 20:01N 37°56' E 023°39'0 0.0
2018-Jun-06 19:31N 37°56' E 023°39'0 0.0
2018-Jun-06 19:01N 37°56' E 023°39'0 0.0
2018-Jun-06 18:30N 37°56' E 023°39'0 0.0
2018-Jun-06 18:00N 37°56' E 023°39'0 0.0
2018-Jun-06 17:31N 37°56' E 023°39'0 0.0
2018-Jun-06 17:00N 37°56' E 023°39'0 0.0
2018-Jun-06 16:30N 37°56' E 023°39'0 0.0
2018-Jun-06 16:00N 37°56' E 023°39'0 0.0
2018-Jun-06 15:31N 37°56' E 023°39'0 0.0
2018-Jun-06 15:01N 37°56' E 023°39'0 0.0
2018-Jun-06 14:30N 37°56' E 023°39'0 0.0
2018-Jun-06 14:00N 37°56' E 023°39'0 0.0
2018-Jun-06 13:30N 37°56' E 023°39'0 0.0
2018-Jun-06 13:00N 37°56' E 023°39'0 0.0
2018-Jun-06 12:31N 37°56' E 023°39'0 0.0
2018-Jun-06 12:01N 37°56' E 023°39'0 0.0
2018-Jun-06 11:31N 37°56' E 023°39'0 0.0
2018-Jun-06 11:01N 37°56' E 023°39'0 0.0
2018-Jun-06 10:30N 37°56' E 023°39'0 0.0
2018-Jun-06 10:00N 37°56' E 023°39'0 0.0
2018-Jun-06 09:31N 37°56' E 023°39'0 0.0
2018-Jun-06 09:00N 37°56' E 023°39'0 0.0
2018-Jun-06 08:30N 37°56' E 023°39'0 0.0
2018-Jun-06 08:00N 37°56' E 023°39'0 0.0
2018-Jun-06 07:30N 37°56' E 023°39'0 0.0
2018-Jun-06 07:00N 37°56' E 023°39'0 0.0
2018-Jun-06 06:31N 37°56' E 023°39'0 0.0
2018-Jun-06 06:01N 37°56' E 023°39'0 0.0
2018-Jun-06 05:30N 37°56' E 023°39'0 0.0
2018-Jun-06 05:00N 37°56' E 023°39'0 0.0
2018-Jun-06 04:30N 37°56' E 023°39'0 0.0
2018-Jun-06 04:00N 37°56' E 023°39'0 0.0
2018-Jun-06 03:30N 37°56' E 023°39'0 0.0
2018-Jun-06 03:00N 37°56' E 023°39'0 0.0
2018-Jun-06 02:31N 37°56' E 023°39'0 0.0
2018-Jun-06 02:00N 37°56' E 023°39'0 0.0
2018-Jun-06 01:31N 37°56' E 023°39'0 0.0
2018-Jun-06 01:00N 37°56' E 023°39'0 0.0
2018-Jun-06 00:31N 37°56' E 023°39'0 0.0
2018-Jun-06 00:01N 37°56' E 023°39'0 0.0
2018-Jun-05 23:30N 37°56' E 023°39'0 0.0
2018-Jun-05 23:01N 37°56' E 023°39'0 0.0
2018-Jun-05 22:30N 37°56' E 023°39'0 0.0
2018-Jun-05 22:01N 37°56' E 023°39'0 0.0
2018-Jun-05 21:30N 37°56' E 023°39'0 0.0
2018-Jun-05 21:01N 37°56' E 023°39'0 0.0
2018-Jun-05 20:31N 37°56' E 023°39'0 0.0
2018-Jun-05 20:00N 37°56' E 023°39'0 0.0
2018-Jun-05 19:30N 37°56' E 023°39'0 0.0
2018-Jun-05 19:00N 37°56' E 023°39'0 0.0
2018-Jun-05 18:30N 37°56' E 023°39'0 0.0
2018-Jun-05 18:00N 37°56' E 023°39'0 0.0
2018-Jun-05 17:30N 37°56' E 023°39'0 0.0
2018-Jun-05 17:00N 37°56' E 023°39'0 0.0
2018-Jun-05 16:31N 37°56' E 023°39'0 0.0
2018-Jun-05 16:00N 37°56' E 023°39'0 0.0
2018-Jun-05 15:30N 37°56' E 023°39'0 0.0
2018-Jun-05 15:00N 37°56' E 023°39'0 0.0
2018-Jun-05 14:31N 37°56' E 023°39'0 0.0
2018-Jun-05 14:00N 37°56' E 023°39'0 0.0
2018-Jun-05 13:30N 37°56' E 023°39'0 0.0
2018-Jun-05 13:01N 37°56' E 023°39'0 0.0
2018-Jun-05 12:30N 37°56' E 023°39'0 0.0
2018-Jun-05 12:00N 37°56' E 023°39'0 0.0
2018-Jun-05 11:31N 37°56' E 023°39'0 0.0
2018-Jun-05 11:01N 37°56' E 023°39'0 0.0
2018-Jun-05 10:31N 37°56' E 023°39'0 0.0
2018-Jun-05 10:00N 37°56' E 023°39'0 0.0
2018-Jun-05 09:31N 37°56' E 023°39'0 0.0
2018-Jun-05 09:00N 37°56' E 023°39'0 0.0
2018-Jun-05 08:30N 37°56' E 023°39'0 0.0
2018-Jun-05 08:00N 37°56' E 023°39'0 0.0
2018-Jun-05 07:30N 37°56' E 023°39'0 0.0
2018-Jun-05 07:00N 37°56' E 023°39'0 0.0
2018-Jun-05 06:30N 37°56' E 023°39'0 0.0
2018-Jun-05 06:00N 37°56' E 023°39'0 0.0
2018-Jun-05 05:30N 37°56' E 023°39'0 0.0
2018-Jun-05 05:01N 37°56' E 023°39'0 0.0
2018-Jun-05 04:31N 37°56' E 023°39'0 0.0
2018-Jun-05 04:01N 37°56' E 023°39'0 0.0
2018-Jun-05 03:31N 37°56' E 023°39'0 0.0
2018-Jun-05 03:00N 37°56' E 023°39'0 0.0
2018-Jun-05 02:30N 37°56' E 023°39'0 0.0
2018-Jun-05 02:01N 37°56' E 023°39'0 0.0
2018-Jun-05 01:30N 37°56' E 023°39'0 0.0
2018-Jun-05 01:00N 37°56' E 023°39'0 0.0
2018-Jun-05 00:30N 37°56' E 023°39'0 0.0
2018-Jun-05 00:00N 37°56' E 023°39'0 0.0
2018-Jun-04 23:30N 37°56' E 023°39'0 0.0
2018-Jun-04 23:01N 37°56' E 023°39'0 0.0
2018-Jun-04 22:30N 37°56' E 023°39'0 0.0
2018-Jun-04 22:01N 37°56' E 023°39'0 0.0
2018-Jun-04 21:30N 37°56' E 023°39'0 0.0
2018-Jun-04 21:00N 37°56' E 023°39'0 0.0
2018-Jun-04 20:30N 37°56' E 023°39'0 0.0
2018-Jun-04 20:00N 37°56' E 023°39'  
Track history (hours):
 
Tides and Currents Weather Stations Pressure Air Temp Water Temp Dewpoint Dewpoint Depression Visibility Wind Speed Wind Dir Waves Ship Positions

Oneiro

Last reported at 2018-Jun-14 19:37 UTC. Time now 2018-Jun-22 00:02 UTC.
Position N 37°21' E 023°25'.

Length 53 m; draft 3 m.

Type: Pleasure craft. MMSI: 241024000.

Date/timePositionNaut miles runAvg speedWind from/ knotsBaromVisibWave heightAir tempDewpointWater temp
2018-Jun-14 19:37N 37°21' E 023°25'1210.5
2018-Jun-14 18:29N 37°30' E 023°35'611.5
2018-Jun-14 18:00N 37°35' E 023°36'611.2
2018-Jun-14 17:30N 37°41' E 023°37'611.9
2018-Jun-14 17:00N 37°46' E 023°38'612.3
2018-Jun-14 16:30N 37°53' E 023°39'3 6.7
2018-Jun-14 16:00N 37°56' E 023°39'0 0.0
2018-Jun-14 15:30N 37°56' E 023°39'0 0.0
2018-Jun-14 15:00N 37°56' E 023°39'0 0.0
2018-Jun-14 14:30N 37°56' E 023°39'0 0.0
2018-Jun-14 14:00N 37°56' E 023°39'0 0.0
2018-Jun-14 13:30N 37°56' E 023°39'0 0.0
2018-Jun-14 13:00N 37°56' E 023°39'0 0.0
2018-Jun-14 12:30N 37°56' E 023°39'0 0.0
2018-Jun-14 12:00N 37°56' E 023°39'0 0.0
2018-Jun-14 11:30N 37°56' E 023°39'0 0.0
2018-Jun-14 11:00N 37°56' E 023°39'0 0.0
2018-Jun-14 10:30N 37°56' E 023°39'0 0.0
2018-Jun-14 10:00N 37°56' E 023°39'0 0.0
2018-Jun-14 09:30N 37°56' E 023°39'0 0.1
2018-Jun-14 09:00N 37°56' E 023°39'0 0.1
2018-Jun-14 08:30N 37°56' E 023°39'0 0.0
2018-Jun-14 07:58N 37°56' E 023°39'0 0.2
2018-Jun-14 07:29N 37°56' E 023°39'  
2018-Jun-10 05:33N 36°59' E 025°19'110.7
2018-Jun-10 05:29N 36°60' E 025°19'510.6
2018-Jun-10 05:00N 37°05' E 025°19'5 9.1
2018-Jun-10 04:30N 37°09' E 025°17'3 5.0
2018-Jun-10 03:50N 37°08' E 025°13'0 0.0
2018-Jun-10 03:18N 37°08' E 025°13'0 0.0
2018-Jun-10 02:53N 37°08' E 025°13'0 0.0
2018-Jun-10 02:23N 37°08' E 025°13'0 0.0
2018-Jun-10 01:44N 37°08' E 025°13'0 0.0
2018-Jun-10 01:31N 37°08' E 025°13'0 0.0
2018-Jun-09 23:52N 37°08' E 025°13'0 0.0
2018-Jun-09 23:25N 37°08' E 025°13'0 0.0
2018-Jun-09 22:57N 37°08' E 025°13'0 0.0
2018-Jun-09 21:14N 37°08' E 025°13'0 0.0
2018-Jun-09 21:00N 37°08' E 025°13'0 0.0
2018-Jun-09 16:04N 37°08' E 025°13'0 0.0
2018-Jun-09 15:42N 37°08' E 025°13'0 0.0
2018-Jun-09 15:24N 37°08' E 025°13'0 0.0
2018-Jun-09 13:56N 37°08' E 025°13'0 0.0
2018-Jun-09 13:22N 37°08' E 025°13'0 0.0
2018-Jun-09 12:50N 37°08' E 025°13'0 0.0
2018-Jun-09 12:19N 37°08' E 025°13'0 0.0
2018-Jun-09 11:54N 37°08' E 025°13'0 0.0
2018-Jun-09 11:23N 37°08' E 025°13'0 0.0
2018-Jun-09 10:53N 37°08' E 025°13'0 0.0
2018-Jun-09 10:19N 37°08' E 025°13'0 0.0
2018-Jun-09 09:58N 37°08' E 025°13'0 0.0
2018-Jun-09 09:23N 37°08' E 025°13'0 0.0
2018-Jun-09 08:56N 37°08' E 025°13'0 0.1
2018-Jun-09 08:16N 37°08' E 025°13'0 0.0
2018-Jun-09 08:00N 37°08' E 025°13'0 0.4
2018-Jun-09 07:30N 37°08' E 025°14'612.1
2018-Jun-09 07:00N 37°13' E 025°16'612.4
2018-Jun-09 06:30N 37°19' E 025°16'612.4
2018-Jun-09 05:59N 37°26' E 025°18'2 0.1
2018-Jun-08 16:10N 37°27' E 025°20'0 0.8
2018-Jun-08 15:58N 37°27' E 025°19'3 7.4
2018-Jun-08 15:30N 37°24' E 025°17'2 4.2
2018-Jun-08 14:55N 37°23' E 025°14'0 0.0
2018-Jun-08 12:39N 37°23' E 025°14'0 0.0
2018-Jun-08 12:26N 37°23' E 025°14'0 0.0
2018-Jun-08 11:59N 37°23' E 025°14'0 0.0
2018-Jun-08 11:30N 37°23' E 025°14'0 0.0
2018-Jun-08 10:24N 37°23' E 025°14'1 3.0
2018-Jun-08 10:01N 37°24' E 025°16'0 0.0
2018-Jun-08 09:29N 37°24' E 025°16'0 0.0
2018-Jun-08 09:01N 37°24' E 025°16'0 0.0
2018-Jun-08 08:31N 37°24' E 025°16'0 0.0
2018-Jun-08 08:01N 37°24' E 025°16'0 0.2
2018-Jun-08 07:30N 37°23' E 025°16'612.4
2018-Jun-08 07:00N 37°23' E 025°08'10 1.3
2018-Jun-07 23:25N 37°26' E 024°57'0 0.0
2018-Jun-07 22:36N 37°26' E 024°57'0 0.0
2018-Jun-07 22:13N 37°26' E 024°57'0 0.0
2018-Jun-07 21:54N 37°26' E 024°57'56 5.0
2018-Jun-07 10:42N 37°45' E 023°49'313.7
2018-Jun-07 10:31N 37°47' E 023°47'713.7
2018-Jun-07 10:01N 37°52' E 023°42'4 8.7
2018-Jun-07 09:30N 37°56' E 023°39'0 0.0
2018-Jun-07 09:00N 37°56' E 023°39'0 0.0
2018-Jun-07 08:31N 37°56' E 023°39'0 0.0
2018-Jun-07 08:01N 37°56' E 023°39'0 0.0
2018-Jun-07 07:30N 37°56' E 023°39'0 0.0
2018-Jun-07 07:00N 37°56' E 023°39'0 0.0
2018-Jun-07 06:31N 37°56' E 023°39'0 0.0
2018-Jun-07 06:00N 37°56' E 023°39'0 0.0
2018-Jun-07 05:31N 37°56' E 023°39'0 0.0
2018-Jun-07 05:01N 37°56' E 023°39'0 0.0
2018-Jun-07 04:30N 37°56' E 023°39'0 0.0
2018-Jun-07 04:00N 37°56' E 023°39'0 0.0
2018-Jun-07 03:31N 37°56' E 023°39'0 0.0
2018-Jun-07 03:01N 37°56' E 023°39'0 0.0
2018-Jun-07 02:30N 37°56' E 023°39'0 0.0
2018-Jun-07 02:01N 37°56' E 023°39'0 0.1
2018-Jun-07 01:31N 37°56' E 023°39'0 0.1
2018-Jun-07 00:59N 37°56' E 023°39'0 0.0
2018-Jun-07 00:31N 37°56' E 023°39'0 0.0
2018-Jun-07 00:00N 37°56' E 023°39'0 0.0
2018-Jun-06 23:30N 37°56' E 023°39'0 0.0
2018-Jun-06 23:01N 37°56' E 023°39'0 0.0
2018-Jun-06 22:30N 37°56' E 023°39'0 0.0
2018-Jun-06 22:00N 37°56' E 023°39'0 0.0
2018-Jun-06 21:31N 37°56' E 023°39'0 0.0
2018-Jun-06 21:00N 37°56' E 023°39'0 0.0
2018-Jun-06 20:31N 37°56' E 023°39'0 0.0
2018-Jun-06 20:01N 37°56' E 023°39'0 0.0
2018-Jun-06 19:31N 37°56' E 023°39'0 0.0
2018-Jun-06 19:01N 37°56' E 023°39'0 0.0
2018-Jun-06 18:30N 37°56' E 023°39'0 0.0
2018-Jun-06 18:00N 37°56' E 023°39'0 0.0
2018-Jun-06 17:31N 37°56' E 023°39'0 0.0
2018-Jun-06 17:00N 37°56' E 023°39'0 0.0
2018-Jun-06 16:30N 37°56' E 023°39'0 0.0
2018-Jun-06 16:00N 37°56' E 023°39'0 0.0
2018-Jun-06 15:31N 37°56' E 023°39'0 0.0
2018-Jun-06 15:01N 37°56' E 023°39'0 0.0
2018-Jun-06 14:30N 37°56' E 023°39'0 0.0
2018-Jun-06 14:00N 37°56' E 023°39'0 0.0
2018-Jun-06 13:30N 37°56' E 023°39'0 0.0
2018-Jun-06 13:00N 37°56' E 023°39'0 0.0
2018-Jun-06 12:31N 37°56' E 023°39'0 0.0
2018-Jun-06 12:01N 37°56' E 023°39'0 0.0
2018-Jun-06 11:31N 37°56' E 023°39'0 0.0
2018-Jun-06 11:01N 37°56' E 023°39'0 0.0
2018-Jun-06 10:30N 37°56' E 023°39'0 0.0
2018-Jun-06 10:00N 37°56' E 023°39'0 0.0
2018-Jun-06 09:31N 37°56' E 023°39'0 0.0
2018-Jun-06 09:00N 37°56' E 023°39'0 0.0
2018-Jun-06 08:30N 37°56' E 023°39'0 0.0
2018-Jun-06 08:00N 37°56' E 023°39'0 0.0
2018-Jun-06 07:30N 37°56' E 023°39'0 0.0
2018-Jun-06 07:00N 37°56' E 023°39'0 0.0
2018-Jun-06 06:31N 37°56' E 023°39'0 0.0
2018-Jun-06 06:01N 37°56' E 023°39'0 0.0
2018-Jun-06 05:30N 37°56' E 023°39'0 0.0
2018-Jun-06 05:00N 37°56' E 023°39'0 0.0
2018-Jun-06 04:30N 37°56' E 023°39'0 0.0
2018-Jun-06 04:00N 37°56' E 023°39'0 0.0
2018-Jun-06 03:30N 37°56' E 023°39'0 0.0
2018-Jun-06 03:00N 37°56' E 023°39'0 0.0
2018-Jun-06 02:31N 37°56' E 023°39'0 0.0
2018-Jun-06 02:00N 37°56' E 023°39'0 0.0
2018-Jun-06 01:31N 37°56' E 023°39'0 0.0
2018-Jun-06 01:00N 37°56' E 023°39'0 0.0
2018-Jun-06 00:31N 37°56' E 023°39'0 0.0
2018-Jun-06 00:01N 37°56' E 023°39'0 0.0
2018-Jun-05 23:30N 37°56' E 023°39'0 0.0
2018-Jun-05 23:01N 37°56' E 023°39'0 0.0
2018-Jun-05 22:30N 37°56' E 023°39'0 0.0
2018-Jun-05 22:01N 37°56' E 023°39'0 0.0
2018-Jun-05 21:30N 37°56' E 023°39'0 0.0
2018-Jun-05 21:01N 37°56' E 023°39'0 0.0
2018-Jun-05 20:31N 37°56' E 023°39'0 0.0
2018-Jun-05 20:00N 37°56' E 023°39'0 0.0
2018-Jun-05 19:30N 37°56' E 023°39'0 0.0
2018-Jun-05 19:00N 37°56' E 023°39'0 0.0
2018-Jun-05 18:30N 37°56' E 023°39'0 0.0
2018-Jun-05 18:00N 37°56' E 023°39'0 0.0
2018-Jun-05 17:30N 37°56' E 023°39'0 0.0
2018-Jun-05 17:00N 37°56' E 023°39'0 0.0
2018-Jun-05 16:31N 37°56' E 023°39'0 0.0
2018-Jun-05 16:00N 37°56' E 023°39'0 0.0
2018-Jun-05 15:30N 37°56' E 023°39'0 0.0
2018-Jun-05 15:00N 37°56' E 023°39'0 0.0
2018-Jun-05 14:31N 37°56' E 023°39'0 0.0
2018-Jun-05 14:00N 37°56' E 023°39'0 0.0
2018-Jun-05 13:30N 37°56' E 023°39'0 0.0
2018-Jun-05 13:01N 37°56' E 023°39'0 0.0
2018-Jun-05 12:30N 37°56' E 023°39'0 0.0
2018-Jun-05 12:00N 37°56' E 023°39'0 0.0
2018-Jun-05 11:31N 37°56' E 023°39'0 0.0
2018-Jun-05 11:01N 37°56' E 023°39'0 0.0
2018-Jun-05 10:31N 37°56' E 023°39'0 0.0
2018-Jun-05 10:00N 37°56' E 023°39'0 0.0
2018-Jun-05 09:31N 37°56' E 023°39'0 0.0
2018-Jun-05 09:00N 37°56' E 023°39'0 0.0
2018-Jun-05 08:30N 37°56' E 023°39'0 0.0
2018-Jun-05 08:00N 37°56' E 023°39'0 0.0
2018-Jun-05 07:30N 37°56' E 023°39'0 0.0
2018-Jun-05 07:00N 37°56' E 023°39'0 0.0
2018-Jun-05 06:30N 37°56' E 023°39'0 0.0
2018-Jun-05 06:00N 37°56' E 023°39'0 0.0
2018-Jun-05 05:30N 37°56' E 023°39'0 0.0
2018-Jun-05 05:01N 37°56' E 023°39'0 0.0
2018-Jun-05 04:31N 37°56' E 023°39'0 0.0
2018-Jun-05 04:01N 37°56' E 023°39'0 0.0
2018-Jun-05 03:31N 37°56' E 023°39'0 0.0
2018-Jun-05 03:00N 37°56' E 023°39'0 0.0
2018-Jun-05 02:30N 37°56' E 023°39'0 0.0
2018-Jun-05 02:01N 37°56' E 023°39'0 0.0
2018-Jun-05 01:30N 37°56' E 023°39'0 0.0
2018-Jun-05 01:00N 37°56' E 023°39'0 0.0
2018-Jun-05 00:30N 37°56' E 023°39'0 0.0
2018-Jun-05 00:00N 37°56' E 023°39'0 0.0
2018-Jun-04 23:30N 37°56' E 023°39'0 0.0
2018-Jun-04 23:01N 37°56' E 023°39'0 0.0
2018-Jun-04 22:30N 37°56' E 023°39'0 0.0
2018-Jun-04 22:01N 37°56' E 023°39'0 0.0
2018-Jun-04 21:30N 37°56' E 023°39'0 0.0
2018-Jun-04 21:00N 37°56' E 023°39'0 0.0
2018-Jun-04 20:30N 37°56' E 023°39'0 0.0
2018-Jun-04 20:00N 37°56' E 023°39'  

Dump ship's entire track history